Time;durP1;ratioP1;P1;durP2;ratioP2;P2;SDS_P1;SDS_P2;PMS_P1;PMS_P2;Temp;Humidity;BMP_temperature;BMP_pressure;BME280_temperature;BME280_humidity;BME280_pressure;Samples;Min_cycle;Max_cycle;Signal;HPM_P1;HPM_P2
2023/09/20 00:02:08;;;;;;;15.83;3.67;;;;;;;16.27;100.00;100750.00;5095610;28;20071;-63
2023/09/20 00:04:35;;;;;;;17.33;3.70;;;;;;;16.22;100.00;100755.41;5093924;28;20808;-64
2023/09/20 00:07:01;;;;;;;16.65;3.72;;;;;;;16.16;100.00;100744.88;5095361;28;20478;-67
2023/09/20 00:09:26;;;;;;;15.38;3.70;;;;;;;16.14;100.00;100752.91;5093707;28;20048;-63
2023/09/20 00:11:53;;;;;;;16.15;3.47;;;;;;;16.08;100.00;100757.50;5095163;28;20036;-62
2023/09/20 00:14:19;;;;;;;14.68;3.38;;;;;;;16.01;100.00;100751.41;5095300;28;20056;-68
2023/09/20 00:16:44;;;;;;;17.23;3.80;;;;;;;15.98;100.00;100748.81;5094965;28;20111;-63
2023/09/20 00:19:09;;;;;;;17.40;3.53;;;;;;;15.92;100.00;100746.25;5095066;28;20074;-66
2023/09/20 00:21:35;;;;;;;14.73;3.50;;;;;;;15.89;100.00;100746.28;5095385;28;20077;-65
2023/09/20 00:24:04;;;;;;;16.95;3.60;;;;;;;15.83;100.00;100745.50;5095181;28;20059;-67
2023/09/20 00:26:30;;;;;;;18.08;3.90;;;;;;;15.78;100.00;100746.47;5091362;28;20031;-69
2023/09/20 00:29:03;;;;;;;14.70;3.50;;;;;;;15.84;100.00;100743.72;5090767;28;20036;-63
2023/09/20 00:31:29;;;;;;;15.20;3.50;;;;;;;15.81;100.00;100738.44;5091091;28;20382;-67
2023/09/20 00:33:56;;;;;;;15.15;3.58;;;;;;;15.76;100.00;100734.97;5094669;28;20038;-66
2023/09/20 00:36:22;;;;;;;18.25;3.80;;;;;;;15.76;100.00;100741.19;5094858;28;20105;-67
2023/09/20 00:38:52;;;;;;;15.70;3.70;;;;;;;15.85;100.00;100737.50;5093226;28;20064;-67
2023/09/20 00:41:18;;;;;;;16.38;3.97;;;;;;;15.77;100.00;100742.94;5093592;28;20489;-69
2023/09/20 00:43:44;;;;;;;17.42;3.85;;;;;;;15.74;100.00;100744.78;5094709;28;20024;-67
2023/09/20 00:46:11;;;;;;;18.17;3.90;;;;;;;15.79;100.00;100734.94;5094413;28;20119;-67
2023/09/20 00:48:41;;;;;;;17.05;3.67;;;;;;;15.71;100.00;100731.50;5093189;28;20032;-69
2023/09/20 00:51:07;;;;;;;18.25;3.97;;;;;;;15.75;100.00;100739.41;5094265;28;20035;-67
2023/09/20 00:53:35;;;;;;;16.52;3.72;;;;;;;15.77;100.00;100737.63;5094530;28;20471;-68
2023/09/20 00:56:03;;;;;;;13.60;3.50;;;;;;;15.83;100.00;100737.53;5094294;28;20070;-70
2023/09/20 00:58:29;;;;;;;15.70;3.67;;;;;;;15.81;100.00;100734.03;5090422;28;20024;-69
2023/09/20 01:00:56;;;;;;;15.30;3.40;;;;;;;15.84;100.00;100733.06;5094388;28;20463;-68
2023/09/20 01:03:23;;;;;;;14.65;3.35;;;;;;;15.88;100.00;100740.09;5094115;28;20031;-68
2023/09/20 01:05:50;;;;;;;14.55;3.50;;;;;;;15.87;100.00;100749.00;5094077;28;20028;-67
2023/09/20 01:08:19;;;;;;;17.17;3.70;;;;;;;15.83;100.00;100741.97;5094273;28;20090;-69
2023/09/20 01:10:45;;;;;;;16.45;3.80;;;;;;;15.84;100.00;100749.06;5093933;28;20055;-66
2023/09/20 01:13:12;;;;;;;15.70;3.80;;;;;;;15.80;100.00;100742.00;5094054;28;20368;-69
2023/09/20 01:15:38;;;;;;;16.63;3.72;;;;;;;15.78;100.00;100741.16;5092855;28;20032;-70
2023/09/20 01:18:04;;;;;;;18.23;3.80;;;;;;;15.82;100.00;100734.88;5093904;28;20534;-70
2023/09/20 01:20:31;;;;;;;15.23;3.50;;;;;;;15.84;100.00;100739.28;5093801;28;20031;-68
2023/09/20 01:22:58;;;;;;;13.38;3.40;;;;;;;15.82;100.00;100734.88;5088665;28;20140;-70
2023/09/20 01:25:32;;;;;;;16.95;3.42;;;;;;;15.79;100.00;100734.94;5092518;28;20380;-70
2023/09/20 01:28:03;;;;;;;14.18;3.70;;;;;;;15.76;100.00;100733.19;5089418;28;20386;-70
2023/09/20 01:30:31;;;;;;;15.43;3.70;;;;;;;15.69;100.00;100728.88;5090265;28;20119;-70
2023/09/20 01:32:59;;;;;;;15.98;3.63;;;;;;;15.71;100.00;100723.50;5089673;28;20470;-71
2023/09/20 01:35:27;;;;;;;17.42;3.45;;;;;;;15.71;100.00;100721.72;5093542;28;20539;-71
2023/09/20 01:37:53;;;;;;;17.65;3.72;;;;;;;15.68;100.00;100722.69;5093733;28;20356;-71
2023/09/20 01:40:19;;;;;;;17.08;3.60;;;;;;;15.73;100.00;100719.03;5093598;28;20020;-71
2023/09/20 01:42:47;;;;;;;14.18;3.50;;;;;;;15.74;100.00;100715.47;5092145;28;20024;-70
2023/09/20 01:45:16;;;;;;;14.70;3.58;;;;;;;15.80;100.00;100712.69;5093324;28;20028;-71
2023/09/20 01:47:49;;;;;;;17.17;3.60;;;;;;;15.85;100.00;100711.69;5093456;28;20502;-67
2023/09/20 01:50:20;;;;;;;14.50;3.70;;;;;;;15.87;100.00;100709.00;5093533;28;20454;-67
2023/09/20 01:52:50;;;;;;;15.68;3.58;;;;;;;15.92;100.00;100700.94;5093159;28;20455;-71
2023/09/20 01:55:21;;;;;;;16.10;3.53;;;;;;;15.94;100.00;100691.97;5093159;28;20020;-67
2023/09/20 01:57:54;;;;;;;16.92;3.53;;;;;;;16.06;100.00;100705.97;5093621;28;20490;-70
2023/09/20 02:00:22;;;;;;;16.15;3.50;;;;;;;16.10;100.00;100713.00;5093358;28;20047;-71
2023/09/20 02:03:08;;;;;;;18.48;3.67;;;;;;;16.17;100.00;100701.31;5093141;28;20031;-71
2023/09/20 02:05:36;;;;;;;14.32;3.58;;;;;;;16.20;100.00;100688.78;5089826;28;20040;-67
2023/09/20 02:08:02;;;;;;;15.23;3.78;;;;;;;16.23;100.00;100679.84;5093238;28;20039;-65
2023/09/20 02:10:28;;;;;;;13.90;3.25;;;;;;;16.26;100.00;100685.09;5088807;28;20040;-62
2023/09/20 02:12:55;;;;;;;15.65;3.70;;;;;;;16.28;100.00;100683.28;5093006;28;20034;-64
2023/09/20 02:15:23;;;;;;;16.10;3.78;;;;;;;16.31;100.00;100674.31;5093124;28;20063;-64
2023/09/20 02:17:49;;;;;;;17.30;3.95;;;;;;;16.30;100.00;100678.78;5092849;28;20475;-62
2023/09/20 02:20:37;;;;;;;17.25;3.40;;;;;;;16.36;100.00;100672.44;5093118;28;20121;-65
2023/09/20 02:23:02;;;;;;;13.00;3.47;;;;;;;16.42;100.00;100682.09;5088969;28;20068;-64
2023/09/20 02:25:28;;;;;;;16.35;3.60;;;;;;;16.42;100.00;100674.97;5088966;28;20098;-64
2023/09/20 02:27:57;;;;;;;16.38;3.60;;;;;;;16.43;100.00;100667.88;5092671;28;20028;-62
2023/09/20 02:30:28;;;;;;;14.30;3.50;;;;;;;16.47;100.00;100666.84;5092762;28;20089;-64
2023/09/20 02:32:57;;;;;;;15.02;3.80;;;;;;;16.43;100.00;100662.53;5092919;28;20024;-60
2023/09/20 02:35:24;;;;;;;16.05;3.72;;;;;;;16.37;100.00;100655.53;5092880;28;20027;-63
2023/09/20 02:37:50;;;;;;;13.65;3.47;;;;;;;16.39;100.00;100667.91;5092588;28;20028;-64
2023/09/20 02:40:19;;;;;;;14.48;3.55;;;;;;;16.35;100.00;100668.03;5091615;28;20032;-64
2023/09/20 02:42:48;;;;;;;17.45;3.53;;;;;;;16.30;100.00;100673.47;5092810;28;20032;-64
2023/09/20 02:45:15;;;;;;;13.85;3.42;;;;;;;16.37;100.00;100659.06;5092596;28;20107;-62
2023/09/20 02:47:41;;;;;;;14.85;3.63;;;;;;;16.35;100.00;100652.91;5092451;28;20036;-64
2023/09/20 02:50:10;;;;;;;14.95;3.33;;;;;;;16.29;100.00;100660.16;5092805;28;20078;-68
2023/09/20 02:52:35;;;;;;;16.05;3.50;;;;;;;16.30;100.00;100651.25;5092806;28;20410;-66
2023/09/20 02:55:04;;;;;;;17.48;3.80;;;;;;;16.20;100.00;100655.91;5092551;28;20028;-66
2023/09/20 02:57:29;;;;;;;14.77;3.60;;;;;;;16.14;100.00;100646.25;5089115;28;20060;-60
2023/09/20 02:59:55;;;;;;;17.70;3.50;;;;;;;16.16;100.00;100647.13;5092567;28;20446;-67
2023/09/20 03:02:20;;;;;;;17.00;3.72;;;;;;;16.14;100.00;100648.06;5092400;28;20371;-62
2023/09/20 03:04:46;;;;;;;14.40;3.58;;;;;;;16.11;100.00;100641.00;5093402;28;20033;-67
2023/09/20 03:07:11;;;;;;;16.63;3.70;;;;;;;16.09;100.00;100641.94;5096344;28;20056;-60
2023/09/20 03:09:37;;;;;;;15.40;3.85;;;;;;;16.13;100.00;100638.28;5096104;28;20048;-66
2023/09/20 03:12:06;;;;;;;17.70;4.00;;;;;;;16.10;100.00;100633.88;5096516;28;20052;-66
2023/09/20 03:14:38;;;;;;;17.70;4.07;;;;;;;16.06;100.00;100642.00;5096217;28;20540;-68
2023/09/20 03:17:04;;;;;;;16.63;3.87;;;;;;;15.96;100.00;100631.53;5093079;28;20035;-64
2023/09/20 03:19:31;;;;;;;15.38;3.70;;;;;;;15.97;100.00;100627.94;5096420;28;20274;-66
2023/09/20 03:21:57;;;;;;;19.83;4.20;;;;;;;15.91;100.00;100628.06;5096329;28;20390;-65
2023/09/20 03:24:22;;;;;;;17.48;3.85;;;;;;;15.94;100.00;100614.69;5094935;28;20146;-65
2023/09/20 03:26:51;;;;;;;16.10;3.90;;;;;;;15.86;100.00;100624.66;5096080;28;20080;-65
2023/09/20 03:29:17;;;;;;;16.88;3.95;;;;;;;15.84;100.00;100611.34;5094799;28;20112;-65
2023/09/20 03:31:43;;;;;;;15.98;3.90;;;;;;;15.77;100.00;100631.00;5095831;28;20056;-66
2023/09/20 03:34:10;;;;;;;16.52;3.90;;;;;;;15.76;100.00;100628.38;5096169;28;20024;-67
2023/09/20 03:36:36;;;;;;;17.63;3.90;;;;;;;15.75;100.00;100631.94;5094849;28;20103;-66
2023/09/20 03:39:03;;;;;;;16.95;3.90;;;;;;;15.64;100.00;100634.81;5095732;28;20119;-65
2023/09/20 03:41:29;;;;;;;17.85;3.80;;;;;;;15.55;100.00;100635.88;5091958;28;20027;-65
2023/09/20 03:43:56;;;;;;;15.40;3.70;;;;;;;15.57;100.00;100639.41;5095966;28;20482;-66
2023/09/20 03:46:21;;;;;;;14.98;3.63;;;;;;;15.47;100.00;100643.16;5095666;28;20032;-65
2023/09/20 03:48:47;;;;;;;14.10;3.50;;;;;;;15.46;100.00;100646.72;5095745;28;20443;-66
2023/09/20 03:51:15;;;;;;;14.88;3.60;;;;;;;15.44;100.00;100643.22;5095444;28;20051;-63
2023/09/20 03:53:41;;;;;;;15.45;3.70;;;;;;;15.38;100.00;100643.31;5095549;28;20119;-63
2023/09/20 03:56:08;;;;;;;15.02;3.80;;;;;;;15.31;100.00;100638.09;5095827;28;20063;-63
2023/09/20 03:58:34;;;;;;;14.60;3.60;;;;;;;15.29;100.00;100634.59;5095446;28;20085;-63
2023/09/20 04:01:02;;;;;;;16.38;3.75;;;;;;;15.27;100.00;100647.06;5095682;28;20051;-63
2023/09/20 04:03:27;;;;;;;16.30;3.85;;;;;;;15.23;100.00;100640.06;5095486;28;20032;-63
2023/09/20 04:05:56;;;;;;;17.20;4.10;;;;;;;15.19;100.00;100634.78;5095247;28;20080;-63
2023/09/20 04:08:22;;;;;;;14.90;4.05;;;;;;;15.05;100.00;100646.56;5095192;28;20126;-63
2023/09/20 04:10:47;;;;;;;16.02;4.00;;;;;;;15.05;100.00;100641.22;5095411;28;20107;-63
2023/09/20 04:13:14;;;;;;;16.52;4.00;;;;;;;15.01;100.00;100642.19;5095403;28;20102;-62
2023/09/20 04:15:42;;;;;;;16.10;3.90;;;;;;;14.92;100.00;100645.00;5093713;28;20047;-63
2023/09/20 04:18:08;;;;;;;17.33;4.20;;;;;;;14.89;100.00;100635.28;5095162;28;20032;-63
2023/09/20 04:20:33;;;;;;;17.65;3.92;;;;;;;14.87;100.00;100636.22;5094947;28;20008;-63
2023/09/20 04:22:59;;;;;;;18.73;4.30;;;;;;;14.89;100.00;100629.09;5094913;28;20020;-63
2023/09/20 04:25:24;;;;;;;17.42;4.30;;;;;;;14.95;100.00;100624.53;5095058;28;20039;-63
2023/09/20 04:27:50;;;;;;;14.50;3.80;;;;;;;14.94;100.00;100616.56;5093785;28;20119;-63
2023/09/20 04:30:17;;;;;;;16.08;4.15;;;;;;;14.94;100.00;100627.22;5094838;28;20028;-63
2023/09/20 04:32:43;;;;;;;17.70;4.25;;;;;;;14.87;100.00;100618.50;5095235;28;20040;-63
2023/09/20 04:35:08;;;;;;;17.13;4.07;;;;;;;14.83;100.00;100619.44;5094752;28;20074;-64
2023/09/20 04:37:34;;;;;;;18.48;4.20;;;;;;;14.84;100.00;100615.88;5094655;28;20028;-63
2023/09/20 04:40:00;;;;;;;17.33;4.18;;;;;;;14.86;100.00;100606.06;5094785;28;20063;-63
2023/09/20 04:42:27;;;;;;;17.02;4.03;;;;;;;14.85;100.00;100614.94;5094585;28;20478;-63
2023/09/20 04:44:53;;;;;;;16.73;3.90;;;;;;;14.87;100.00;100614.94;5094526;28;20036;-69
2023/09/20 04:47:19;;;;;;;15.35;4.10;;;;;;;14.84;100.00;100612.31;5094643;28;20024;-71
2023/09/20 04:49:45;;;;;;;18.80;4.30;;;;;;;14.82;100.00;100612.34;5093213;28;20060;-70
2023/09/20 04:52:11;;;;;;;17.27;4.35;;;;;;;14.77;100.00;100614.22;5094485;28;20056;-71
2023/09/20 04:54:37;;;;;;;15.77;3.88;;;;;;;14.73;100.00;100612.50;5094614;28;20050;-71
2023/09/20 04:57:04;;;;;;;16.08;3.80;;;;;;;14.74;100.00;100608.97;5094296;28;20028;-71
2023/09/20 04:59:31;;;;;;;16.05;3.95;;;;;;;14.73;100.00;100616.03;5090484;28;20032;-71
2023/09/20 05:01:56;;;;;;;15.55;4.10;;;;;;;14.76;100.00;100618.66;5094423;28;20028;-71
2023/09/20 05:04:21;;;;;;;15.73;4.10;;;;;;;14.71;100.00;100606.31;5094171;28;20020;-72
2023/09/20 05:06:47;;;;;;;15.93;4.00;;;;;;;14.62;100.00;100610.00;5094153;28;20038;-72
2023/09/20 05:09:12;;;;;;;18.10;4.00;;;;;;;14.59;100.00;100604.72;5093677;28;20079;-71
2023/09/20 05:11:38;;;;;;;17.80;4.22;;;;;;;14.59;100.00;100594.97;5093945;28;20452;-71
2023/09/20 05:14:07;;;;;;;18.30;3.90;;;;;;;14.63;100.00;100606.47;5094163;28;20040;-69
2023/09/20 05:16:33;;;;;;;15.05;4.00;;;;;;;14.63;100.00;100609.13;5090247;28;20020;-71
2023/09/20 05:18:59;;;;;;;15.57;4.00;;;;;;;14.64;100.00;100611.75;5093833;28;20024;-71
2023/09/20 05:21:25;;;;;;;17.60;4.20;;;;;;;14.69;100.00;100616.13;5094003;28;20024;-71
2023/09/20 05:23:50;;;;;;;14.93;3.92;;;;;;;14.66;100.00;100609.06;5093688;28;20085;-71
2023/09/20 05:26:18;;;;;;;16.10;4.20;;;;;;;14.61;100.00;100614.47;5093567;28;20108;-71
2023/09/20 05:28:43;;;;;;;17.20;4.50;;;;;;;14.65;100.00;100604.66;5087239;28;20456;-75
2023/09/20 05:31:09;;;;;;;16.15;4.20;;;;;;;14.64;100.00;100611.75;5090623;28;20115;-74
2023/09/20 05:33:34;;;;;;;17.58;4.50;;;;;;;14.64;100.00;100600.25;5093312;28;20064;-60
2023/09/20 05:35:59;;;;;;;16.67;4.20;;;;;;;14.72;100.00;100606.31;5093588;28;20452;-62
2023/09/20 05:38:26;;;;;;;14.30;4.20;;;;;;;14.73;100.00;100604.53;5093111;28;20437;-62
2023/09/20 05:40:51;;;;;;;17.73;4.10;;;;;;;14.77;100.00;100598.25;5092887;28;20077;-61
2023/09/20 05:43:17;;;;;;;18.83;4.15;;;;;;;14.78;100.00;100600.00;5090807;28;20024;-59
2023/09/20 05:45:42;;;;;;;14.07;3.90;;;;;;;14.83;100.00;100600.81;5093228;28;20024;-60
2023/09/20 05:48:09;;;;;;;20.02;4.10;;;;;;;14.81;100.00;100597.31;5093221;28;20118;-61
2023/09/20 05:50:35;;;;;;;15.52;3.95;;;;;;;14.81;100.00;100599.97;5093211;28;20056;-59
2023/09/20 05:53:01;;;;;;;17.70;3.97;;;;;;;14.88;100.00;100595.41;5093096;28;20078;-66
2023/09/20 05:55:31;;;;;;;14.48;3.95;;;;;;;14.85;100.00;100588.34;5093170;28;20080;-60
2023/09/20 05:57:57;;;;;;;16.42;4.22;;;;;;;14.89;100.00;100591.84;5093506;28;20081;-60
2023/09/20 06:00:22;;;;;;;14.18;3.97;;;;;;;14.94;100.00;100592.63;5092950;28;20093;-63
2023/09/20 06:02:49;;;;;;;15.52;4.25;;;;;;;14.90;100.00;100604.25;5088747;28;20067;-59
2023/09/20 06:05:15;;;;;;;14.77;3.90;;;;;;;14.93;100.00;100610.38;5093006;28;20036;-60
2023/09/20 06:07:41;;;;;;;12.88;3.80;;;;;;;14.97;100.00;100604.13;5092792;28;20081;-60
2023/09/20 06:10:16;;;;;;;16.85;4.30;;;;;;;14.97;100.00;100601.44;5092755;28;20392;-60
2023/09/20 06:12:41;;;;;;;18.48;4.10;;;;;;;15.02;100.00;100595.19;5092906;28;20035;-61
2023/09/20 06:15:08;;;;;;;17.50;3.88;;;;;;;15.10;100.00;100595.91;5089364;28;20028;-60
2023/09/20 06:17:34;;;;;;;17.33;4.22;;;;;;;15.10;100.00;100596.78;5091915;28;20028;-63
2023/09/20 06:20:00;;;;;;;13.63;3.80;;;;;;;15.13;100.00;100598.50;5092840;28;20375;-60
2023/09/20 06:22:29;;;;;;;15.82;4.10;;;;;;;15.22;100.00;100585.03;5091403;28;20194;-63
2023/09/20 06:24:58;;;;;;;15.93;4.00;;;;;;;15.22;100.00;100595.69;5092753;28;20452;-60
2023/09/20 06:27:24;;;;;;;15.20;3.83;;;;;;;15.23;100.00;100589.47;5058330;28;20123;-61
2023/09/20 06:29:51;;;;;;;13.15;3.90;;;;;;;15.29;100.00;100599.97;5092265;28;20032;-60
2023/09/20 06:32:16;;;;;;;13.98;3.65;;;;;;;15.34;100.00;100602.56;5092443;28;20028;-60
2023/09/20 06:34:42;;;;;;;15.40;3.80;;;;;;;15.37;100.00;100596.31;5092855;28;20179;-63
2023/09/20 06:37:09;;;;;;;14.90;3.95;;;;;;;15.46;100.00;100598.78;5092385;28;20110;-60
2023/09/20 06:39:35;;;;;;;17.50;3.80;;;;;;;15.46;100.00;100599.63;5094461;28;20028;-73
2023/09/20 06:42:01;;;;;;;14.45;3.90;;;;;;;15.52;100.00;100599.53;5097176;28;20085;-72
2023/09/20 06:44:27;;;;;;;14.93;3.90;;;;;;;15.57;100.00;100588.78;5096675;28;20429;-73
2023/09/20 06:46:52;;;;;;;13.38;3.67;;;;;;;15.68;100.00;100588.56;5096504;28;20028;-73
2023/09/20 06:49:18;;;;;;;11.88;3.60;;;;;;;15.72;100.00;100586.72;5092391;28;20347;-72
2023/09/20 06:51:43;;;;;;;15.23;4.00;;;;;;;15.83;100.00;100593.59;5097038;28;20085;-73
2023/09/20 06:54:09;;;;;;;14.95;3.67;;;;;;;15.86;100.00;100588.19;5089897;28;20487;-67
2023/09/20 06:56:35;;;;;;;10.88;3.40;;;;;;;15.99;100.00;100587.94;5096668;28;20371;-62
2023/09/20 06:59:01;;;;;;;15.88;3.67;;;;;;;16.08;100.00;100595.72;5096649;28;20028;-61
2023/09/20 07:01:26;;;;;;;15.35;3.50;;;;;;;16.14;100.00;100592.91;5086963;28;20025;-64
2023/09/20 07:03:56;;;;;;;14.55;3.75;;;;;;;16.19;100.00;100587.47;5095087;28;20039;-59
2023/09/20 07:06:21;;;;;;;13.57;3.78;;;;;;;16.21;100.00;100594.53;5094987;28;20479;-72
2023/09/20 07:08:47;;;;;;;11.70;3.30;;;;;;;16.31;100.00;100594.31;5093149;28;20043;-69
2023/09/20 07:11:12;;;;;;;14.07;3.38;;;;;;;16.30;100.00;100590.78;5083366;28;20467;-60
2023/09/20 07:13:37;;;;;;;14.98;3.85;;;;;;;16.42;100.00;100580.75;5090961;28;20032;-60
2023/09/20 07:16:05;;;;;;;11.50;3.40;;;;;;;16.41;100.00;100581.66;5094958;28;20506;-60
2023/09/20 07:18:31;;;;;;;14.32;3.70;;;;;;;16.42;100.00;100578.06;5094882;28;20115;-60
2023/09/20 07:20:56;;;;;;;13.93;3.40;;;;;;;16.41;100.00;100573.66;5086701;28;20450;-60
2023/09/20 07:23:23;;;;;;;12.02;3.25;;;;;;;16.45;100.00;100567.31;5086032;28;20051;-60
2023/09/20 07:25:49;;;;;;;13.40;3.75;;;;;;;16.50;100.00;100573.44;5083385;28;20020;-60
2023/09/20 07:28:16;;;;;;;14.82;3.70;;;;;;;16.60;100.00;100577.63;5085438;28;20019;-63
2023/09/20 07:30:45;;;;;;;15.55;3.58;;;;;;;16.74;100.00;100571.94;5085386;28;20027;-63
2023/09/20 07:33:12;;;;;;;12.13;3.60;;;;;;;16.76;100.00;100588.81;5083453;28;20094;-64
2023/09/20 07:35:47;;;;;;;14.25;3.60;;;;;;;16.80;100.00;100568.22;5081622;28;20020;-63
2023/09/20 07:38:20;;;;;;;14.93;3.50;;;;;;;16.90;100.00;100585.78;5095347;28;20119;-64
2023/09/20 07:40:50;;;;;;;15.40;3.55;;;;;;;16.98;100.00;100580.25;5095432;28;20020;-63
2023/09/20 07:43:17;;;;;;;14.07;3.50;;;;;;;17.05;100.00;100576.50;5095938;28;20036;-61
2023/09/20 07:45:43;;;;;;;13.55;3.60;;;;;;;17.10;100.00;100565.72;5095436;28;20527;-64
2023/09/20 07:48:12;;;;;;;14.23;3.53;;;;;;;17.15;100.00;100571.78;5095849;28;20039;-64
2023/09/20 07:50:43;;;;;;;13.45;3.60;;;;;;;17.15;100.00;100578.00;5095527;28;20035;-64
2023/09/20 07:53:10;;;;;;;14.52;3.70;;;;;;;17.17;100.00;100576.19;5095451;28;20085;-63
2023/09/20 07:55:41;;;;;;;13.68;3.55;;;;;;;17.17;100.00;100570.84;5095351;28;20123;-64
2023/09/20 07:58:08;;;;;;;16.10;3.70;;;;;;;17.23;100.00;100565.31;5095890;28;20387;-64
2023/09/20 08:00:42;;;;;;;16.17;3.70;;;;;;;17.25;100.00;100574.16;5095362;28;20032;-65
2023/09/20 08:03:09;;;;;;;13.52;3.75;;;;;;;17.22;100.00;100578.72;5090394;28;20058;-60
2023/09/20 08:05:34;;;;;;;13.45;3.80;;;;;;;17.25;100.00;100565.28;5090947;28;20060;-62
2023/09/20 08:08:00;;;;;;;13.65;3.80;;;;;;;17.29;100.00;100566.94;5095131;28;20117;-62
2023/09/20 08:10:25;;;;;;;16.73;4.10;;;;;;;17.33;100.00;100567.72;5094675;28;20044;-60
2023/09/20 08:12:51;;;;;;;15.23;4.10;;;;;;;17.30;100.00;100571.38;5095320;28;20036;-63
2023/09/20 08:15:17;;;;;;;15.00;4.43;;;;;;;17.34;100.00;100570.34;5094872;28;20486;-60
2023/09/20 08:20:27;;;;;;;16.10;4.32;;;;;;;17.46;100.00;100574.50;5092024;28;20113;-62
2023/09/20 09:01:31;;;;;;;15.90;3.80;;;;;;;19.01;100.00;100589.31;5092256;28;20494;-72
2023/09/20 09:04:00;;;;;;;13.73;3.50;;;;;;;19.16;100.00;100578.06;5094646;28;20036;-72
2023/09/20 09:06:26;;;;;;;11.25;3.50;;;;;;;19.46;100.00;100577.88;5094054;28;20031;-72
2023/09/20 09:08:52;;;;;;;13.85;3.67;;;;;;;19.71;100.00;100568.91;5092684;28;20387;-71
2023/09/20 09:11:17;;;;;;;13.15;3.38;;;;;;;19.60;100.00;100572.00;5094263;28;20028;-72
2023/09/20 09:13:43;;;;;;;14.25;3.80;;;;;;;19.39;100.00;100576.34;5094263;28;20030;-72
2023/09/20 09:16:08;;;;;;;13.88;3.72;;;;;;;19.28;100.00;100570.50;5094141;28;20450;-72
2023/09/20 09:18:34;;;;;;;13.95;3.53;;;;;;;19.21;100.00;100583.25;5092574;28;20513;-71
2023/09/20 09:21:00;;;;;;;13.95;3.78;;;;;;;19.21;100.00;100582.34;5093810;28;20437;-71
2023/09/20 09:23:37;;;;;;;12.90;3.33;;;;;;;19.18;100.00;100567.28;5094033;28;20032;-72
2023/09/20 09:26:03;;;;;;;13.48;3.50;;;;;;;19.05;100.00;100568.66;5094014;28;20032;-71
2023/09/20 09:28:31;;;;;;;13.63;3.42;;;;;;;19.17;100.00;100574.44;5093574;28;20081;-71
2023/09/20 09:30:57;;;;;;;12.65;3.40;;;;;;;19.23;100.00;100583.19;5093850;28;20384;-72
2023/09/20 09:33:23;;;;;;;14.32;3.92;;;;;;;19.36;100.00;100580.97;5094107;28;20020;-72
2023/09/20 09:35:48;;;;;;;14.60;3.47;;;;;;;19.49;100.00;100569.72;5093470;28;20481;-72
2023/09/20 09:38:21;;;;;;;13.50;3.38;;;;;;;19.66;100.00;100568.22;5093846;28;20471;-72
2023/09/20 09:40:53;;;;;;;12.73;3.15;;;;;;;19.74;100.00;100560.75;5090482;28;20036;-72
2023/09/20 09:43:19;;;;;;;10.83;3.20;;;;;;;19.63;100.00;100560.28;5093399;28;20044;-72
2023/09/20 09:45:48;;;;;;;12.15;3.20;;;;;;;19.73;100.00;100561.69;5093410;28;20054;-72
2023/09/20 09:48:17;;;;;;;15.15;3.30;;;;;;;19.96;100.00;100557.28;5088445;28;20032;-67
2023/09/20 09:50:45;;;;;;;11.82;3.25;;;;;;;20.08;100.00;100556.81;5089444;28;20031;-64
2023/09/20 09:53:13;;;;;;;12.50;3.10;;;;;;;20.12;100.00;100555.72;5093195;28;20028;-63
2023/09/20 09:55:40;;;;;;;11.32;3.00;;;;;;;20.43;100.00;100548.22;5093153;28;20020;-64
2023/09/20 09:58:05;;;;;;;10.90;3.28;;;;;;;20.52;100.00;100539.81;5093414;28;20028;-64
2023/09/20 10:00:33;;;;;;;11.48;2.90;;;;;;;20.57;100.00;100536.94;5093105;28;20532;-64
2023/09/20 10:03:07;;;;;;;11.15;3.55;;;;;;;20.72;100.00;100538.97;5083724;28;21319;-61
2023/09/20 10:05:35;;;;;;;10.02;2.97;;;;;;;20.87;100.00;100529.41;5089146;28;20459;-60
2023/09/20 10:08:05;;;;;;;10.02;3.10;;;;;;;21.14;100.00;100532.66;5092940;28;20035;-60
2023/09/20 10:10:30;;;;;;;13.52;3.30;;;;;;;21.15;100.00;100533.56;5089005;28;20059;-60
2023/09/20 10:12:56;;;;;;;10.73;3.00;;;;;;;21.04;100.00;100540.28;5092845;28;20020;-60
2023/09/20 10:15:22;;;;;;;10.63;2.90;;;;;;;20.86;100.00;100543.78;5093060;28;20038;-60
2023/09/20 10:17:59;;;;;;;9.98;2.78;;;;;;;20.87;100.00;100537.47;5092856;28;20424;-61
2023/09/20 10:20:54;;;;;;;9.07;2.90;;;;;;;21.35;100.00;100530.00;5092714;28;20031;-65
2023/09/20 10:23:22;;;;;;;14.15;3.05;;;;;;;22.17;100.00;100523.47;5092052;28;20024;-64
2023/09/20 10:25:48;;;;;;;8.05;2.72;;;;;;;22.60;100.00;100526.72;5092738;28;20493;-65
2023/09/20 10:28:17;;;;;;;8.57;2.80;;;;;;;22.32;100.00;100527.22;5090692;28;20040;-67
2023/09/20 10:31:04;;;;;;;10.60;2.97;;;;;;;21.90;100.00;100543.56;5092524;28;20039;-67
2023/09/20 10:33:41;;;;;;;10.70;2.80;;;;;;;21.89;100.00;100528.38;5090259;28;20058;-68
2023/09/20 10:36:06;;;;;;;11.48;2.70;;;;;;;22.06;100.00;100516.81;5092579;28;20020;-67
2023/09/20 10:38:32;;;;;;;8.60;2.40;;;;;;;22.37;100.00;100515.31;5092917;28;20038;-71
2023/09/20 10:41:03;;;;;;;10.55;2.50;;;;;;;22.51;100.00;100502.97;5091231;28;20035;-68
2023/09/20 10:43:34;;;;;;;9.48;2.45;;;;;;;22.42;100.00;100525.84;5092698;28;20032;-68
2023/09/20 10:46:09;;;;;;;10.85;2.70;;;;;;;22.11;100.00;100509.34;5092757;28;20031;-68
2023/09/20 10:48:39;;;;;;;7.43;2.40;;;;;;;21.94;100.00;100491.38;5092940;28;20058;-69
2023/09/20 10:51:06;;;;;;;6.75;2.40;;;;;;;22.17;100.00;100501.94;5092525;28;20024;-67
2023/09/20 10:53:55;;;;;;;9.45;2.42;;;;;;;22.29;100.00;100486.06;5092605;28;20107;-67
2023/09/20 10:56:53;;;;;;;7.22;2.50;;;;;;;22.06;100.00;100495.28;5088823;28;20035;-68
2023/09/20 10:59:26;;;;;;;9.43;2.40;;;;;;;22.18;100.00;100492.91;5088479;28;20111;-69
2023/09/20 11:01:52;;;;;;;5.25;2.20;;;;;;;22.10;100.00;100487.91;5088955;28;20035;-67
2023/09/20 11:04:18;;;;;;;9.77;2.50;;;;;;;22.06;100.00;100489.00;5088494;28;20031;-69
2023/09/20 11:06:55;;;;;;;7.80;2.15;;;;;;;22.01;100.00;100488.38;5092418;28;20185;-70
2023/09/20 11:09:24;;;;;;;10.55;2.33;;;;;;;22.06;100.00;100457.59;5088519;28;20415;-67
2023/09/20 11:11:50;;;;;;;8.50;2.40;;;;;;;22.12;100.00;100486.03;5081465;28;20028;-67
2023/09/20 11:14:17;;;;;;;7.90;2.53;;;;;;;22.00;100.00;100483.94;5081570;28;20094;-65
2023/09/20 11:16:43;;;;;;;8.18;2.42;;;;;;;22.09;100.00;100475.38;5082326;28;20027;-71
2023/09/20 11:19:12;;;;;;;7.93;2.40;;;;;;;22.08;100.00;100487.97;5092435;28;20036;-68
2023/09/20 11:21:41;;;;;;;12.70;2.53;;;;;;;22.45;100.00;100474.53;5092466;28;20020;-67
2023/09/20 11:24:11;;;;;;;10.18;2.50;;;;;;;22.39;100.00;100474.84;5087135;28;20024;-75
2023/09/20 11:26:37;;;;;;;8.30;2.53;;;;;;;22.36;100.00;100483.09;5092719;28;20036;-75
2023/09/20 11:29:04;;;;;;;6.93;2.38;;;;;;;22.12;100.00;100504.88;5095802;28;20036;-77
2023/09/20 11:31:30;;;;;;;9.55;2.60;;;;;;;;;;5095781;28;20076;-64
2023/09/20 11:34:00;;;;;;;7.80;2.40;;;;;;;22.20;100.00;100483.81;5095835;28;20028;-60
2023/09/20 11:36:42;;;;;;;8.40;2.40;;;;;;;21.87;100.00;100489.03;5094601;28;20454;-60
2023/09/20 11:39:08;;;;;;;;;;;;;;;21.84;100.00;100478.41;5096127;28;20039;-60
2023/09/20 11:41:35;;;;;;;9.77;2.60;;;;;;;21.76;100.00;100476.09;5095640;28;19916;-60
2023/09/20 11:44:00;;;;;;;9.15;2.40;;;;;;;21.67;100.00;100485.50;5095557;28;20032;-60
2023/09/20 11:46:33;;;;;;;7.95;2.50;;;;;;;21.51;100.00;100490.72;5094628;28;20039;-59
2023/09/20 11:49:04;;;;;;;10.35;2.72;;;;;;;21.19;100.00;100468.84;5085098;28;20360;-59
2023/09/20 11:51:34;;;;;;;8.30;2.50;;;;;;;21.18;100.00;100475.16;5088416;28;20036;-60
2023/09/20 11:54:02;;;;;;;7.38;2.30;;;;;;;21.39;100.00;100483.19;5094258;28;20097;-60
2023/09/20 11:56:30;;;;;;;8.75;2.50;;;;;;;21.59;100.00;100479.59;5095279;28;20119;-61